Time;durP1;ratioP1;P1;durP2;ratioP2;P2;SDS_P1;SDS_P2;PMS_P1;PMS_P2;Temp;Humidity;BMP_temperature;BMP_pressure;BME280_temperature;BME280_humidity;BME280_pressure;Samples;Min_cycle;Max_cycle;Signal;HPM_P1;HPM_P2
2024/04/07 00:13:25;;;;;;;66.40;29.50;;;;;;;12.12;88.51;100640.36;668917;1262;140763;-79
2024/04/07 00:28:29;;;;;;;63.90;28.80;;;;;;;11.96;88.94;100639.30;668033;1263;139679;-80
2024/04/07 00:43:32;;;;;;;41.50;19.70;;;;;;;11.92;89.23;100627.08;668031;1273;140387;-80
2024/04/07 00:58:35;;;;;;;27.20;10.30;;;;;;;12.09;89.68;100615.41;668020;1264;139642;-80
2024/04/07 01:13:39;;;;;;;46.40;19.80;;;;;;;12.45;90.24;100620.08;668441;1265;140655;-80
2024/04/07 01:28:42;;;;;;;27.50;9.10;;;;;;;12.54;90.34;100613.48;667981;1262;139625;-80
2024/04/07 01:43:45;;;;;;;21.30;7.70;;;;;;;13.02;90.91;100622.42;667316;1265;140305;-78
2024/04/07 01:58:48;;;;;;;21.30;9.00;;;;;;;13.25;90.87;100626.79;667837;1262;139783;-80
2024/04/07 02:13:51;;;;;;;20.00;8.30;;;;;;;13.32;90.76;100625.96;667752;1262;139678;-80
2024/04/07 02:28:55;;;;;;;23.10;12.60;;;;;;;13.24;93.02;100616.88;667562;1260;139465;-79
2024/04/07 02:43:59;;;;;;;27.90;13.40;;;;;;;13.12;92.67;100602.21;668397;1278;139610;-80
2024/04/07 02:59:02;;;;;;;24.80;10.00;;;;;;;12.97;92.97;100583.96;666965;1263;139673;-79
2024/04/07 03:14:05;;;;;;;20.70;8.70;;;;;;;13.00;92.42;100589.98;667747;1262;140132;-79
2024/04/07 03:29:08;;;;;;;19.10;8.10;;;;;;;12.95;91.85;100597.77;668893;1263;139508;-78
2024/04/07 03:44:12;;;;;;;19.30;8.20;;;;;;;12.90;91.64;100613.42;668988;1266;139857;-80
2024/04/07 03:59:15;;;;;;;19.70;9.30;;;;;;;12.74;91.83;100612.95;669483;1263;140656;-79
2024/04/07 04:14:18;;;;;;;25.30;10.30;;;;;;;12.76;92.01;100604.84;667758;1262;139450;-79
2024/04/07 04:29:22;;;;;;;30.20;14.90;;;;;;;12.79;91.74;100636.53;668394;1263;139377;-80
2024/04/07 04:44:33;;;;;;;30.20;15.90;;;;;;;12.79;91.89;100642.46;666943;1262;139923;-80
2024/04/07 04:59:36;;;;;;;106.60;34.40;;;;;;;13.08;92.73;100619.99;669960;1262;142113;-80
2024/04/07 05:14:39;;;;;;;89.30;33.80;;;;;;;13.76;92.67;100591.11;667103;1262;139823;-80
2024/04/07 05:29:47;;;;;;;34.70;16.70;;;;;;;14.63;92.43;100584.14;667712;1264;140254;-81
2024/04/07 05:44:50;;;;;;;49.30;20.30;;;;;;;15.08;91.79;100596.15;668092;1260;140587;-79
2024/04/07 05:59:53;;;;;;;37.40;15.20;;;;;;;15.14;91.54;100583.14;667194;1262;139736;-79
2024/04/07 06:14:57;;;;;;;23.60;12.40;;;;;;;16.97;90.64;100587.31;667006;1263;139581;-80
2024/04/07 06:30:07;;;;;;;20.20;11.10;;;;;;;18.83;85.46;100582.53;667108;1274;140805;-79
2024/04/07 06:45:20;;;;;;;19.40;12.30;;;;;;;19.80;81.78;100607.14;666898;1266;140249;-79
2024/04/07 07:00:24;;;;;;;9.70;6.50;;;;;;;22.36;76.31;100599.31;673217;1262;139822;-81
2024/04/07 07:15:27;;;;;;;14.10;6.80;;;;;;;21.21;70.91;100606.54;675516;1259;139982;-82
2024/04/07 07:30:30;;;;;;;12.30;8.40;;;;;;;20.95;71.28;100607.70;669657;1264;138701;-80
2024/04/07 07:45:33;;;;;;;9.80;6.10;;;;;;;22.40;69.31;100594.95;666979;1263;138823;-81
2024/04/07 08:00:37;;;;;;;9.70;5.40;;;;;;;23.70;68.26;100582.33;669904;1264;138620;-80
2024/04/07 08:15:41;;;;;;;8.80;5.60;;;;;;;24.22;65.54;100574.39;671999;1263;139214;-80
2024/04/07 08:30:44;;;;;;;8.00;5.30;;;;;;;23.77;65.44;100574.23;666985;1263;138986;-80
2024/04/07 08:45:49;;;;;;;9.30;5.10;;;;;;;24.05;65.74;100559.81;666881;1263;138976;-81
2024/04/07 09:00:56;;;;;;;7.10;5.20;;;;;;;24.55;64.42;100546.09;665969;1261;139744;-79
2024/04/07 09:16:00;;;;;;;4.60;3.70;;;;;;;24.89;62.78;100536.51;669088;1264;138805;-80
2024/04/07 09:31:05;;;;;;;6.90;4.50;;;;;;;25.81;61.46;100526.21;666955;1275;138899;-80
2024/04/07 09:46:09;;;;;;;7.60;3.90;;;;;;;25.59;60.72;100531.83;667429;1273;139333;-80
2024/04/07 10:01:13;;;;;;;4.50;3.60;;;;;;;25.94;61.29;100523.58;669411;1263;139644;-81
2024/04/07 10:16:17;;;;;;;5.70;3.40;;;;;;;26.17;60.12;100521.61;668868;1264;138106;-79
2024/04/07 10:31:30;;;;;;;8.20;3.20;;;;;;;26.54;58.79;100519.09;671201;1260;139699;-79
2024/04/07 10:46:33;;;;;;;5.40;2.80;;;;;;;26.21;58.56;100509.16;672653;1264;138614;-79
2024/04/07 11:01:36;;;;;;;6.10;3.80;;;;;;;26.67;59.51;100495.45;672272;1259;225787;-80
2024/04/07 11:16:41;;;;;;;5.20;3.40;;;;;;;26.46;60.30;100485.27;668852;1264;139352;-79
2024/04/07 11:31:53;;;;;;;9.80;3.90;;;;;;;26.48;60.65;100475.77;667699;1260;139113;-79
2024/04/07 11:47:13;;;;;;;8.60;6.00;;;;;;;26.22;61.72;100465.98;676970;1262;139351;-79
2024/04/07 12:02:16;;;;;;;6.00;3.50;;;;;;;26.78;61.35;100466.41;673910;1263;140260;-78
2024/04/07 12:17:20;;;;;;;8.10;5.20;;;;;;;27.01;60.44;100472.58;667578;1259;138785;-79
2024/04/07 12:32:24;;;;;;;4.80;2.90;;;;;;;27.42;59.92;100453.96;666813;1259;139293;-79
2024/04/07 12:47:27;;;;;;;5.30;3.80;;;;;;;27.33;59.67;100448.02;665938;1267;138990;-79
2024/04/07 13:02:30;;;;;;;5.70;3.00;;;;;;;27.53;59.62;100442.26;666416;1262;140642;-79
2024/04/07 13:17:34;;;;;;;6.70;3.40;;;;;;;27.58;59.65;100436.16;666144;1263;139189;-80
2024/04/07 13:32:37;;;;;;;9.10;3.20;;;;;;;27.47;61.29;100407.69;666623;1275;138764;-79
2024/04/07 13:47:40;;;;;;;6.40;3.00;;;;;;;27.58;61.32;100379.80;663931;1262;139395;-78
2024/04/07 14:02:44;;;;;;;6.00;2.90;;;;;;;27.22;62.46;100369.84;665513;1260;138390;-82
2024/04/07 14:17:49;;;;;;;5.20;3.00;;;;;;;27.13;62.74;100365.80;664713;1259;140063;-86
2024/04/07 14:32:53;;;;;;;7.70;3.30;;;;;;;26.82;63.23;100360.05;668665;1262;138927;-79
2024/04/07 14:47:57;;;;;;;28.70;17.80;;;;;;;26.56;64.38;100352.67;669595;1260;140053;-84
2024/04/07 15:03:00;;;;;;;23.40;15.90;;;;;;;26.27;65.84;100339.10;669019;1264;139923;-83
2024/04/07 15:18:03;;;;;;;8.50;6.60;;;;;;;26.30;66.27;100321.04;668101;1262;140011;-82
2024/04/07 15:33:06;;;;;;;8.30;4.60;;;;;;;26.25;66.88;100329.75;673810;1262;138512;-77
2024/04/07 15:48:10;;;;;;;33.10;29.60;;;;;;;26.34;66.90;100333.48;672320;1270;139658;-79
2024/04/07 16:03:13;;;;;;;12.70;6.70;;;;;;;25.78;69.18;100330.34;668813;1265;138911;-82
2024/04/07 16:18:17;;;;;;;15.10;8.20;;;;;;;25.37;70.92;100313.11;670470;1263;139418;-79
2024/04/07 16:33:20;;;;;;;13.90;7.20;;;;;;;24.95;72.21;100294.99;669837;1269;139168;-79
2024/04/07 16:48:23;;;;;;;13.70;7.20;;;;;;;24.59;73.07;100290.79;670608;1262;140687;-79
2024/04/07 17:03:26;;;;;;;10.40;6.50;;;;;;;24.35;73.29;100288.35;671071;1263;140660;-78
2024/04/07 17:18:29;;;;;;;9.70;4.80;;;;;;;24.08;73.98;100299.29;672096;1259;140603;-80
2024/04/07 17:33:33;;;;;;;9.00;5.40;;;;;;;23.67;74.70;100306.73;672200;1260;141385;-77
2024/04/07 17:48:36;;;;;;;18.70;9.60;;;;;;;23.29;75.81;100306.06;670316;1262;139168;-78
2024/04/07 18:03:39;;;;;;;17.80;9.90;;;;;;;22.96;76.09;100320.84;670087;1263;139531;-77
2024/04/07 18:18:43;;;;;;;15.50;9.80;;;;;;;22.28;76.33;100320.93;673110;1262;141016;-80
2024/04/07 18:33:46;;;;;;;11.30;7.40;;;;;;;21.64;77.76;100337.38;671270;1262;139503;-79
2024/04/07 18:48:49;;;;;;;10.70;8.30;;;;;;;21.28;79.06;100363.73;669191;1262;140429;-79
2024/04/07 19:03:52;;;;;;;41.10;21.10;;;;;;;20.79;79.34;100369.58;670626;1262;140098;-79
2024/04/07 19:18:55;;;;;;;77.80;33.80;;;;;;;20.28;80.65;100362.42;671183;1259;140097;-80
2024/04/07 19:34:00;;;;;;;44.30;27.40;;;;;;;20.35;83.50;100399.70;669236;1262;140659;-81
2024/04/07 19:49:03;;;;;;;35.60;18.10;;;;;;;20.69;82.79;100384.91;669339;1262;139900;-79
2024/04/07 20:04:07;;;;;;;98.00;45.90;;;;;;;19.99;83.23;100402.01;668974;1265;142448;-79
2024/04/07 20:19:10;;;;;;;16.10;9.90;;;;;;;19.63;84.08;100414.75;668048;1262;141389;-79
2024/04/07 20:34:13;;;;;;;14.10;8.00;;;;;;;19.22;82.60;100438.10;668326;1262;140870;-81
2024/04/07 20:49:17;;;;;;;14.10;7.40;;;;;;;18.84;80.25;100442.23;667711;1262;140033;-81
2024/04/07 21:04:20;;;;;;;9.50;4.90;;;;;;;18.44;79.20;100440.15;667674;1265;141238;-79
2024/04/07 21:19:23;;;;;;;9.70;5.00;;;;;;;18.14;78.81;100439.63;667723;1263;140372;-80
2024/04/07 21:34:26;;;;;;;11.10;5.70;;;;;;;17.91;78.46;100453.63;667888;1261;140738;-79
2024/04/07 21:49:28;;;;;;;12.60;5.40;;;;;;;17.64;78.84;100454.23;668539;1266;140423;-79
2024/04/07 22:04:31;;;;;;;29.00;13.90;;;;;;;17.42;78.47;100460.58;667387;1263;141242;-79
2024/04/07 22:19:34;;;;;;;40.20;18.60;;;;;;;17.32;77.82;100467.90;667742;1263;140765;-80
2024/04/07 22:34:38;;;;;;;11.40;5.80;;;;;;;17.32;77.38;100467.81;667752;1262;139868;-79
2024/04/07 22:49:48;;;;;;;5.20;2.90;;;;;;;17.09;77.31;100465.03;667146;1265;203108;-78
2024/04/07 23:04:51;;;;;;;7.50;2.90;;;;;;;16.73;78.54;100472.42;666966;1262;139529;-80
2024/04/07 23:19:56;;;;;;;9.30;2.80;;;;;;;16.45;79.28;100462.97;674124;1262;140033;-79
2024/04/07 23:34:59;;;;;;;4.00;2.70;;;;;;;16.33;79.81;100464.38;668830;1263;139841;-77
2024/04/07 23:50:03;;;;;;;27.50;12.80;;;;;;;16.16;80.49;100451.11;664395;1269;143554;-77
